Zortman, Montana
Current Conditions -  °F | °C
As of 4:53 AM on Sunday 25 Jan 2015 (Local Time) from KHVR Reporting Station
Clear Clear  
Wind Chill: 29°   Ceiling: Unl
Heat Index: 29°   Visibility: 10mi
Dew Point: 26°   Wind: 3mph
Humidity: 89%   Direction: 110°ESE
Pressure: 29.94"   Gusts: NA
Location:  47.92°N, 108.53°W
Report Text: KHVR 251153Z AUTO 11003KT 10SM CLR M02/M03 A2994 RMK AO2 SLP162 T10171033 11006 21022 58024
Loading
Personal Weather Stations






























Interactive Weather Map New forecast layout! Learn more

10-Day Weather Forecast

Advertisements
Track Severe Weather on mobile